Time;durP1;ratioP1;P1;durP2;ratioP2;P2;SDS_P1;SDS_P2;PMS_P1;PMS_P2;Temp;Humidity;BMP_temperature;BMP_pressure;BME280_temperature;BME280_humidity;BME280_pressure;Samples;Min_cycle;Max_cycle;Signal;HPM_P1;HPM_P2
2023/08/14 00:00:42;;;;;;;12.45;11.30;;;15.10;99.90;;;;;;4972750;28;20039;-74
2023/08/14 00:03:08;;;;;;;12.15;11.15;;;15.10;99.90;;;;;;4971891;28;20074;-73
2023/08/14 00:05:35;;;;;;;24.27;12.43;;;15.00;99.90;;;;;;4973491;28;20038;-73
2023/08/14 00:08:02;;;;;;;12.80;11.60;;;15.00;99.90;;;;;;4967924;28;20121;-72
2023/08/14 00:10:29;;;;;;;12.57;11.50;;;15.10;99.90;;;;;;4970582;28;20081;-73
2023/08/14 00:12:56;;;;;;;13.10;11.88;;;15.10;99.90;;;;;;4968793;28;20104;-73
2023/08/14 00:15:22;;;;;;;14.57;13.18;;;15.10;99.90;;;;;;4971199;28;20046;-73
2023/08/14 00:17:51;;;;;;;13.90;12.80;;;15.20;99.90;;;;;;4971839;28;20135;-73
2023/08/14 00:20:18;;;;;;;14.23;13.02;;;15.40;99.90;;;;;;4966831;28;21268;-73
2023/08/14 00:22:44;;;;;;;13.55;12.43;;;15.40;99.90;;;;;;4973180;28;20050;-73
2023/08/14 00:25:11;;;;;;;13.73;12.73;;;15.30;99.90;;;;;;4963501;28;20140;-73
2023/08/14 00:27:38;;;;;;;13.98;12.55;;;15.30;99.90;;;;;;4973125;28;20116;-74
2023/08/14 00:30:05;;;;;;;15.30;13.80;;;15.50;99.90;;;;;;4970597;28;20056;-72
2023/08/14 00:32:32;;;;;;;14.10;12.82;;;15.60;99.90;;;;;;4972993;28;20078;-74
2023/08/14 00:34:59;;;;;;;14.30;13.18;;;15.50;99.90;;;;;;4978437;28;20942;-72
2023/08/14 00:37:43;;;;;;;14.70;13.20;;;15.60;99.90;;;;;;4968235;28;20073;-72
2023/08/14 00:40:11;;;;;;;15.25;13.50;;;15.80;99.90;;;;;;4966014;28;20473;-73
2023/08/14 00:42:39;;;;;;;15.13;13.73;;;15.80;99.90;;;;;;4970110;28;20050;-73
2023/08/14 00:45:07;;;;;;;14.18;12.98;;;15.80;99.90;;;;;;4965105;28;20050;-73
2023/08/14 00:47:37;;;;;;;14.68;13.32;;;15.80;99.90;;;;;;4971482;28;20126;-73
2023/08/14 00:50:06;;;;;;;15.20;13.45;;;15.80;99.90;;;;;;4967381;28;20058;-72
2023/08/14 00:52:35;;;;;;;13.23;11.95;;;15.80;99.90;;;;;;4980230;28;20073;-73
2023/08/14 00:55:03;;;;;;;12.32;11.23;;;15.70;99.90;;;;;;4973107;28;20629;-72
2023/08/14 00:57:30;;;;;;;11.15;10.27;;;15.70;99.90;;;;;;4987365;28;20038;-73
2023/08/14 00:59:58;;;;;;;13.40;10.80;;;15.70;99.90;;;;;;4975412;28;20040;-73
2023/08/14 01:02:25;;;;;;;13.00;10.20;;;15.60;99.90;;;;;;4961434;28;20646;-74
2023/08/14 01:04:52;;;;;;;9.85;8.90;;;15.40;99.90;;;;;;4974494;28;20053;-73
2023/08/14 01:07:19;;;;;;;9.35;8.65;;;15.30;99.90;;;;;;4970521;28;20042;-73
2023/08/14 01:09:47;;;;;;;11.10;8.18;;;15.30;99.90;;;;;;4972846;28;20061;-73
2023/08/14 01:12:28;;;;;;;12.05;7.78;;;15.20;99.90;;;;;;4964015;28;20062;-73
2023/08/14 01:15:02;;;;;;;11.77;8.18;;;15.10;99.90;;;;;;4970633;28;20042;-73
2023/08/14 01:17:33;;;;;;;10.15;8.23;;;15.10;99.90;;;;;;4971625;28;20188;-74
2023/08/14 01:20:01;;;;;;;11.50;9.45;;;15.10;99.90;;;;;;4964806;28;20047;-73
2023/08/14 01:22:50;;;;;;;9.60;8.23;;;15.20;99.90;;;;;;4956554;28;20404;-73
2023/08/14 01:25:26;;;;;;;8.63;7.70;;;15.20;99.90;;;;;;4968353;28;20046;-73
2023/08/14 01:27:54;;;;;;;8.88;7.60;;;15.10;99.90;;;;;;4972430;28;20050;-73
2023/08/14 01:30:22;;;;;;;11.07;8.48;;;15.10;99.90;;;;;;4961697;28;20256;-73
2023/08/14 01:32:50;;;;;;;10.95;8.15;;;15.10;99.90;;;;;;4972171;28;20058;-73
2023/08/14 01:35:18;;;;;;;10.75;8.50;;;15.10;99.90;;;;;;4967417;28;20046;-73
2023/08/14 01:37:54;;;;;;;11.43;9.65;;;14.90;99.90;;;;;;4967999;28;20050;-74
2023/08/14 01:40:48;;;;;;;15.35;10.38;;;14.90;99.90;;;;;;4968599;28;20058;-73
2023/08/14 01:43:24;;;;;;;15.02;11.27;;;14.80;99.90;;;;;;4957790;28;20702;-73
2023/08/14 01:45:52;;;;;;;15.70;10.70;;;14.80;99.90;;;;;;4971313;28;20038;-73
2023/08/14 01:48:24;;;;;;;12.82;11.45;;;14.80;99.90;;;;;;4968597;28;20694;-73
2023/08/14 01:50:53;;;;;;;14.02;12.65;;;14.70;99.90;;;;;;4970660;28;20046;-74
2023/08/14 01:53:19;;;;;;;15.30;13.68;;;14.70;99.90;;;;;;4959794;28;20043;-72
2023/08/14 01:55:46;;;;;;;14.05;12.77;;;14.70;99.90;;;;;;4971053;28;20097;-74
2023/08/14 01:58:13;;;;;;;14.30;12.68;;;14.50;99.90;;;;;;4968387;28;20100;-73
2023/08/14 02:00:40;;;;;;;14.48;12.90;;;14.40;99.90;;;;;;4967953;28;20038;-74
2023/08/14 02:03:06;;;;;;;14.13;12.77;;;14.30;99.90;;;;;;4964817;28;20047;-74
2023/08/14 02:05:33;;;;;;;15.65;13.18;;;14.30;99.90;;;;;;4971680;28;20054;-74
2023/08/14 02:08:00;;;;;;;15.57;14.10;;;14.20;99.90;;;;;;4973698;28;20497;-74
2023/08/14 02:10:27;;;;;;;15.27;13.75;;;14.20;99.90;;;;;;4967408;28;20038;-74
2023/08/14 02:12:54;;;;;;;15.35;14.05;;;14.20;99.90;;;;;;4980537;28;20105;-74
2023/08/14 02:15:22;;;;;;;15.68;14.38;;;14.20;99.90;;;;;;4963677;28;22063;-74
2023/08/14 02:17:49;;;;;;;22.20;14.32;;;14.30;99.90;;;;;;4970181;28;20351;-73
2023/08/14 02:20:17;;;;;;;15.27;13.98;;;14.20;99.90;;;;;;4966913;28;20038;-75
2023/08/14 02:22:43;;;;;;;19.48;14.43;;;14.30;99.90;;;;;;4970121;28;20042;-74
2023/08/14 02:25:10;;;;;;;15.23;13.77;;;14.30;99.90;;;;;;4969190;28;20101;-73
2023/08/14 02:27:37;;;;;;;16.25;14.70;;;14.20;99.90;;;;;;4953532;28;20050;-73
2023/08/14 02:30:04;;;;;;;17.70;14.45;;;14.40;99.90;;;;;;4971403;28;20050;-74
2023/08/14 02:32:31;;;;;;;14.75;13.30;;;14.40;99.90;;;;;;4969531;28;20235;-74
2023/08/14 02:34:58;;;;;;;15.23;13.60;;;14.40;99.90;;;;;;4974073;28;20046;-72
2023/08/14 02:37:24;;;;;;;17.63;14.05;;;14.20;99.90;;;;;;4965427;28;20128;-74
2023/08/14 02:39:51;;;;;;;16.80;13.77;;;14.10;99.90;;;;;;4973693;28;20097;-74
2023/08/14 02:42:19;;;;;;;15.18;13.73;;;14.00;99.90;;;;;;4965132;28;20093;-74
2023/08/14 02:44:46;;;;;;;15.98;14.55;;;14.00;99.90;;;;;;4969800;28;20046;-74
2023/08/14 02:47:13;;;;;;;16.42;13.70;;;14.10;99.90;;;;;;4969115;28;20097;-73
2023/08/14 02:49:40;;;;;;;14.85;13.55;;;14.20;99.90;;;;;;4969149;28;20445;-73
2023/08/14 02:52:07;;;;;;;16.67;13.88;;;14.10;99.90;;;;;;4968245;28;20183;-74
2023/08/14 02:54:34;;;;;;;14.68;13.23;;;13.90;99.90;;;;;;4959400;28;20539;-73
2023/08/14 02:57:01;;;;;;;15.07;13.50;;;14.00;99.90;;;;;;4969172;28;20038;-74
2023/08/14 02:59:28;;;;;;;15.80;14.00;;;13.90;99.90;;;;;;4971220;28;20059;-74
2023/08/14 03:01:55;;;;;;;16.27;14.55;;;14.00;99.90;;;;;;4976503;28;20046;-73
2023/08/14 03:04:22;;;;;;;15.60;14.02;;;13.90;99.90;;;;;;4967744;28;20529;-74
2023/08/14 03:06:49;;;;;;;17.15;14.27;;;13.90;99.90;;;;;;4972125;28;20137;-72
2023/08/14 03:09:16;;;;;;;17.45;14.18;;;13.80;99.90;;;;;;4969760;28;20917;-75
2023/08/14 03:11:42;;;;;;;15.45;14.02;;;13.70;99.90;;;;;;4950150;28;20053;-75
2023/08/14 03:14:09;;;;;;;26.30;14.95;;;13.70;99.90;;;;;;4970670;28;20619;-72
2023/08/14 03:16:36;;;;;;;15.90;14.20;;;13.60;99.90;;;;;;4969266;28;20124;-74
2023/08/14 03:19:03;;;;;;;15.35;14.05;;;13.60;99.90;;;;;;4972139;28;20193;-74
2023/08/14 03:21:30;;;;;;;18.48;14.15;;;13.70;99.90;;;;;;4969076;28;20173;-72
2023/08/14 03:23:57;;;;;;;15.90;14.32;;;13.80;99.90;;;;;;4976811;28;20050;-72
2023/08/14 03:26:23;;;;;;;14.35;13.18;;;13.60;99.90;;;;;;4970288;28;20415;-74
2023/08/14 03:28:50;;;;;;;15.32;13.50;;;13.70;99.90;;;;;;4976071;28;20058;-72
2023/08/14 03:31:17;;;;;;;15.73;12.63;;;13.70;99.90;;;;;;4967392;28;20529;-71
2023/08/14 03:33:44;;;;;;;16.48;13.27;;;13.70;99.90;;;;;;4975272;28;20050;-72
2023/08/14 03:36:11;;;;;;;16.88;12.70;;;13.70;99.90;;;;;;4974791;28;20125;-72
2023/08/14 03:38:39;;;;;;;17.15;11.80;;;13.70;99.90;;;;;;4970006;28;20054;-72
2023/08/14 03:41:06;;;;;;;12.25;11.15;;;13.70;99.90;;;;;;4981109;28;20082;-72
2023/08/14 03:43:33;;;;;;;12.25;10.43;;;13.60;99.90;;;;;;4963488;28;20186;-73
2023/08/14 03:46:01;;;;;;;13.57;11.23;;;13.50;99.90;;;;;;4969063;28;20042;-71
2023/08/14 03:48:27;;;;;;;12.07;10.35;;;13.60;99.90;;;;;;4967767;28;20061;-71
2023/08/14 03:50:54;;;;;;;13.52;11.30;;;13.40;99.90;;;;;;4973255;28;20045;-72
2023/08/14 03:53:21;;;;;;;16.50;12.32;;;13.40;99.90;;;;;;4965139;28;20056;-72
2023/08/14 03:55:48;;;;;;;13.48;12.10;;;13.40;99.90;;;;;;4971367;28;20050;-72
2023/08/14 03:58:15;;;;;;;18.35;12.82;;;13.30;99.90;;;;;;4949480;28;20108;-73
2023/08/14 04:00:42;;;;;;;15.60;12.95;;;13.30;99.90;;;;;;4966465;28;20055;-72
2023/08/14 04:03:09;;;;;;;14.93;12.52;;;13.30;99.90;;;;;;4972301;28;20058;-75
2023/08/14 04:05:39;;;;;;;13.43;12.32;;;13.50;99.90;;;;;;4961591;28;20070;-72
2023/08/14 04:08:06;;;;;;;16.25;13.88;;;13.40;99.90;;;;;;4970570;28;20670;-72
2023/08/14 04:10:34;;;;;;;15.38;13.82;;;13.50;99.90;;;;;;4964493;28;20038;-72
2023/08/14 04:13:01;;;;;;;15.85;14.50;;;13.60;99.90;;;;;;4972162;28;20057;-72
2023/08/14 04:15:27;;;;;;;17.00;14.57;;;13.50;99.90;;;;;;4965709;28;20146;-73
2023/08/14 04:17:55;;;;;;;15.65;14.02;;;13.40;99.90;;;;;;4970749;28;20049;-72
2023/08/14 04:20:22;;;;;;;17.75;15.55;;;13.30;99.90;;;;;;4963730;28;20046;-73
2023/08/14 04:22:49;;;;;;;17.33;15.93;;;13.30;99.90;;;;;;4971980;28;20508;-72
2023/08/14 04:25:18;;;;;;;16.70;14.98;;;13.30;99.90;;;;;;4971766;28;20050;-73
2023/08/14 04:27:45;;;;;;;16.88;15.23;;;13.50;99.90;;;;;;4964788;28;22668;-73
2023/08/14 04:30:12;;;;;;;17.35;15.95;;;13.60;99.90;;;;;;4963037;28;20077;-72
2023/08/14 04:32:39;;;;;;;17.58;15.85;;;13.80;99.90;;;;;;4961624;28;20053;-72
2023/08/14 04:35:07;;;;;;;16.65;15.27;;;13.90;99.90;;;;;;4968838;28;20035;-72
2023/08/14 04:37:35;;;;;;;18.55;16.05;;;14.00;99.90;;;;;;4961252;28;20113;-72
2023/08/14 04:40:02;;;;;;;20.10;16.33;;;14.00;99.90;;;;;;4949587;28;20047;-71
2023/08/14 04:42:30;;;;;;;17.10;15.20;;;14.00;99.90;;;;;;4946972;28;20039;-72
2023/08/14 04:44:57;;;;;;;15.90;14.25;;;14.10;99.90;;;;;;4972084;28;20097;-73
2023/08/14 04:47:23;;;;;;;15.75;13.38;;;14.00;99.90;;;;;;4966214;28;20065;-72
2023/08/14 04:49:52;;;;;;;16.08;14.57;;;14.00;99.90;;;;;;4964982;28;21151;-72
2023/08/14 04:52:20;;;;;;;15.63;13.27;;;14.10;99.90;;;;;;4950416;28;20063;-72
2023/08/14 04:54:48;;;;;;;14.93;13.35;;;14.00;99.90;;;;;;4967705;28;20050;-73
2023/08/14 04:57:15;;;;;;;15.35;13.75;;;14.10;99.90;;;;;;4967180;28;20185;-72
2023/08/14 04:59:43;;;;;;;14.10;12.77;;;14.20;99.90;;;;;;4950013;28;20054;-72
2023/08/14 05:02:10;;;;;;;17.48;13.98;;;14.10;99.90;;;;;;4951353;28;20082;-71
2023/08/14 05:04:37;;;;;;;14.20;12.90;;;14.00;99.90;;;;;;4945995;28;20109;-73
2023/08/14 05:07:04;;;;;;;19.52;13.75;;;13.90;99.90;;;;;;4968641;28;20500;-73
2023/08/14 05:09:31;;;;;;;14.25;12.95;;;14.00;99.90;;;;;;4962742;28;20130;-72
2023/08/14 05:11:58;;;;;;;14.68;13.25;;;14.10;99.90;;;;;;4964018;28;20123;-73
2023/08/14 05:14:25;;;;;;;15.95;14.27;;;14.10;99.90;;;;;;4965647;28;20046;-72
2023/08/14 05:16:52;;;;;;;15.82;14.52;;;14.10;99.90;;;;;;4968744;28;21090;-73
2023/08/14 05:19:19;;;;;;;15.88;14.48;;;14.20;99.90;;;;;;4969460;28;20046;-72
2023/08/14 05:21:47;;;;;;;14.45;13.15;;;14.20;99.90;;;;;;4947694;28;20047;-73
2023/08/14 05:24:14;;;;;;;14.70;13.40;;;14.30;99.90;;;;;;4951760;28;20043;-72
2023/08/14 05:26:41;;;;;;;14.57;13.18;;;14.50;99.90;;;;;;4963078;28;20049;-72
2023/08/14 05:29:08;;;;;;;16.77;12.13;;;14.50;99.90;;;;;;4962651;28;20050;-72
2023/08/14 05:31:35;;;;;;;14.75;13.32;;;14.80;99.90;;;;;;4961833;28;20058;-72
2023/08/14 05:34:02;;;;;;;14.38;12.75;;;14.80;99.90;;;;;;4969467;28;20046;-72
2023/08/14 05:36:28;;;;;;;13.00;11.70;;;14.90;99.90;;;;;;4965668;28;20042;-71
2023/08/14 05:38:55;;;;;;;13.70;12.40;;;14.80;99.90;;;;;;4966309;28;20548;-75
2023/08/14 05:41:22;;;;;;;15.50;12.27;;;14.90;99.90;;;;;;4967126;28;20595;-71
2023/08/14 05:43:49;;;;;;;17.13;12.57;;;15.00;99.90;;;;;;4966465;28;20048;-72
2023/08/14 05:46:16;;;;;;;12.75;11.43;;;15.20;99.90;;;;;;4966430;28;20080;-72
2023/08/14 05:48:42;;;;;;;14.15;12.65;;;15.30;99.90;;;;;;4961258;28;20050;-72
2023/08/14 05:51:09;;;;;;;13.13;12.05;;;15.40;99.90;;;;;;4970807;28;20050;-72
2023/08/14 05:53:36;;;;;;;12.82;11.63;;;15.30;99.90;;;;;;4959403;28;20050;-72
2023/08/14 05:56:03;;;;;;;11.95;10.90;;;15.60;99.90;;;;;;4969320;28;20034;-72
2023/08/14 05:58:30;;;;;;;13.68;11.10;;;15.70;99.90;;;;;;4965488;28;20042;-71
2023/08/14 06:00:56;;;;;;;12.45;10.93;;;15.80;99.90;;;;;;4965972;28;20241;-74
2023/08/14 06:03:23;;;;;;;13.05;11.80;;;16.00;99.90;;;;;;4970104;28;20046;-74
2023/08/14 06:06:08;;;;;;;16.90;11.20;;;16.20;99.90;;;;;;4983379;28;20081;-74
2023/08/14 06:08:35;;;;;;;12.05;11.00;;;16.40;99.90;;;;;;4962962;28;20043;-74
2023/08/14 06:11:02;;;;;;;12.75;11.48;;;16.70;99.90;;;;;;4965581;28;20137;-74
2023/08/14 06:13:29;;;;;;;11.82;10.75;;;16.80;99.90;;;;;;4963105;28;20054;-73
2023/08/14 06:15:56;;;;;;;13.05;11.82;;;17.10;99.90;;;;;;4964859;28;20038;-72
2023/08/14 06:18:23;;;;;;;14.70;13.52;;;17.30;99.90;;;;;;4965720;28;20480;-71
2023/08/14 06:20:51;;;;;;;15.50;14.50;;;17.50;99.90;;;;;;4961260;28;20081;-74
2023/08/14 06:23:17;;;;;;;17.40;15.95;;;17.70;99.90;;;;;;4971796;28;20535;-74
2023/08/14 06:25:46;;;;;;;18.17;16.63;;;17.80;99.90;;;;;;4958862;28;20043;-74
2023/08/14 06:28:13;;;;;;;17.98;16.55;;;17.90;99.90;;;;;;4950797;28;20048;-74
2023/08/14 06:30:41;;;;;;;20.02;18.23;;;18.10;99.90;;;;;;4945468;28;20474;-73
2023/08/14 06:33:08;;;;;;;22.23;18.85;;;18.40;99.90;;;;;;4975376;28;20050;-74
2023/08/14 06:35:35;;;;;;;20.00;18.70;;;18.70;99.90;;;;;;4965900;28;20053;-73
2023/08/14 06:38:02;;;;;;;21.52;19.77;;;19.00;99.90;;;;;;4969936;28;20049;-73
2023/08/14 06:40:29;;;;;;;21.23;19.50;;;19.40;99.90;;;;;;4965606;28;20054;-72
2023/08/14 06:42:56;;;;;;;21.95;19.95;;;19.80;99.90;;;;;;4970425;28;20072;-74
2023/08/14 06:45:22;;;;;;;21.70;19.92;;;20.10;99.90;;;;;;4972673;28;20866;-74
2023/08/14 06:47:49;;;;;;;22.10;20.50;;;20.60;99.90;;;;;;4966753;28;22181;-73
2023/08/14 06:50:16;;;;;;;22.38;20.50;;;20.80;99.90;;;;;;4969541;28;20044;-74
2023/08/14 06:52:45;;;;;;;23.58;21.42;;;21.20;99.90;;;;;;4967407;28;20057;-74
2023/08/14 06:55:12;;;;;;;22.73;21.10;;;21.50;99.90;;;;;;4969192;28;20070;-74
2023/08/14 06:57:42;;;;;;;21.75;20.30;;;21.70;99.90;;;;;;4962397;28;20057;-73
2023/08/14 07:00:13;;;;;;;22.15;19.90;;;22.00;99.90;;;;;;4976532;28;20054;-74
2023/08/14 07:02:40;;;;;;;23.80;21.92;;;22.20;99.90;;;;;;4961963;28;20035;-74
2023/08/14 07:05:09;;;;;;;21.90;20.48;;;22.40;99.90;;;;;;4973261;28;20042;-72
2023/08/14 07:07:37;;;;;;;22.35;20.80;;;22.40;99.90;;;;;;4977608;28;20047;-72
2023/08/14 07:10:04;;;;;;;24.00;21.50;;;22.50;99.90;;;;;;4972881;28;20752;-71
2023/08/14 07:12:32;;;;;;;24.33;22.52;;;22.70;99.90;;;;;;4963894;28;20054;-70
2023/08/14 07:15:00;;;;;;;23.15;21.08;;;22.90;99.90;;;;;;4968146;28;20043;-72
2023/08/14 07:17:27;;;;;;;24.40;22.13;;;22.90;99.90;;;;;;4968220;28;20088;-72
2023/08/14 07:19:54;;;;;;;22.67;21.17;;;23.10;99.90;;;;;;4962724;28;20051;-72
2023/08/14 07:22:21;;;;;;;23.73;22.23;;;23.30;99.90;;;;;;4972606;28;20121;-71
2023/08/14 07:24:47;;;;;;;24.02;22.52;;;23.10;99.90;;;;;;4966731;28;20046;-72
2023/08/14 07:27:14;;;;;;;24.42;22.60;;;23.10;99.90;;;;;;4972469;28;20056;-70
2023/08/14 07:29:41;;;;;;;24.35;22.67;;;23.10;99.90;;;;;;4947539;28;20619;-73
2023/08/14 07:32:10;;;;;;;23.08;21.38;;;23.20;99.90;;;;;;4960347;28;20540;-72
2023/08/14 07:34:37;;;;;;;23.98;22.13;;;23.10;99.90;;;;;;4974406;28;20042;-73
2023/08/14 07:37:04;;;;;;;22.95;21.48;;;22.80;99.90;;;;;;4964635;28;20043;-74
2023/08/14 07:39:31;;;;;;;23.98;21.77;;;22.90;99.90;;;;;;4967897;28;20058;-73
2023/08/14 07:41:58;;;;;;;24.08;22.20;;;23.00;99.90;;;;;;4966225;28;20394;-72
2023/08/14 07:44:25;;;;;;;25.13;23.17;;;23.00;99.90;;;;;;4971705;28;20727;-72
2023/08/14 07:46:51;;;;;;;23.80;22.10;;;23.30;99.90;;;;;;4966246;28;20124;-73
2023/08/14 07:49:18;;;;;;;23.30;21.75;;;23.10;99.90;;;;;;4968732;28;20117;-73
2023/08/14 07:51:45;;;;;;;25.42;23.30;;;23.50;99.90;;;;;;4967579;28;20042;-73
2023/08/14 07:54:11;;;;;;;25.10;23.20;;;23.60;99.90;;;;;;4973523;28;20046;-73
2023/08/14 07:56:39;;;;;;;24.35;22.58;;;23.60;99.90;;;;;;4962019;28;20038;-73
2023/08/14 07:59:06;;;;;;;23.90;22.30;;;23.80;99.90;;;;;;4964935;28;20468;-74
2023/08/14 08:01:32;;;;;;;23.83;22.20;;;23.80;99.90;;;;;;4968082;28;20078;-71
2023/08/14 08:03:59;;;;;;;25.85;24.05;;;23.80;99.90;;;;;;4967017;28;20508;-73
2023/08/14 08:06:26;;;;;;;25.88;23.90;;;23.90;99.90;;;;;;4971154;28;20089;-74
2023/08/14 08:08:53;;;;;;;25.10;23.40;;;23.90;99.90;;;;;;4967161;28;20053;-73
2023/08/14 08:11:21;;;;;;;23.13;21.58;;;24.20;99.90;;;;;;4964541;28;20070;-73
2023/08/14 08:13:48;;;;;;;25.50;23.73;;;24.40;99.90;;;;;;4980796;28;20051;-71
2023/08/14 08:16:14;;;;;;;23.35;21.90;;;24.40;99.90;;;;;;4972851;28;20069;-72
2023/08/14 08:18:41;;;;;;;22.85;21.45;;;24.70;99.90;;;;;;4965755;28;20047;-71
2023/08/14 08:21:08;;;;;;;23.55;21.73;;;24.90;99.90;;;;;;4975104;28;20053;-71
2023/08/14 08:23:35;;;;;;;24.08;22.13;;;24.50;99.90;;;;;;4965804;28;20552;-73
2023/08/14 08:26:02;;;;;;;23.88;22.17;;;23.50;99.90;;;;;;4966901;28;20039;-72
2023/08/14 08:28:29;;;;;;;22.95;21.17;;;23.30;99.90;;;;;;4967112;28;20713;-72
2023/08/14 08:30:56;;;;;;;22.27;20.67;;;23.70;99.90;;;;;;4963382;28;20277;-74
2023/08/14 08:33:23;;;;;;;23.58;22.17;;;24.10;99.90;;;;;;4971748;28;20109;-72
2023/08/14 08:35:52;;;;;;;22.77;21.15;;;23.90;99.90;;;;;;4964170;28;20508;-74
2023/08/14 08:38:19;;;;;;;24.08;22.27;;;23.90;99.90;;;;;;4969732;28;20045;-71
2023/08/14 08:40:48;;;;;;;24.23;22.45;;;24.20;99.90;;;;;;4963875;28;20525;-72
2023/08/14 08:43:16;;;;;;;24.23;22.42;;;24.10;99.90;;;;;;4965567;28;20039;-73
2023/08/14 08:45:50;;;;;;;25.02;23.10;;;23.70;99.90;;;;;;4966675;28;20046;-74
2023/08/14 08:48:22;;;;;;;24.08;22.48;;;23.80;99.90;;;;;;4965653;28;20046;-73
2023/08/14 08:50:50;;;;;;;23.45;21.92;;;23.90;99.90;;;;;;4965829;28;20047;-72
2023/08/14 08:53:19;;;;;;;23.60;21.80;;;24.10;99.90;;;;;;4972147;28;20220;-73
2023/08/14 08:55:47;;;;;;;23.00;21.42;;;24.20;99.90;;;;;;4963241;28;20042;-73
2023/08/14 08:58:16;;;;;;;23.92;22.15;;;24.20;99.90;;;;;;4966165;28;20054;-73
2023/08/14 09:00:43;;;;;;;23.55;21.98;;;24.40;99.90;;;;;;4940995;28;20042;-73
2023/08/14 09:03:12;;;;;;;23.77;22.17;;;24.30;99.90;;;;;;4966621;28;20045;-74
2023/08/14 09:05:41;;;;;;;23.60;21.48;;;24.30;99.90;;;;;;4961547;28;20038;-73
2023/08/14 09:08:08;;;;;;;22.90;21.50;;;24.30;99.90;;;;;;4968607;28;20054;-74
2023/08/14 09:10:35;;;;;;;24.33;22.40;;;24.40;99.90;;;;;;4960817;28;20668;-73
2023/08/14 09:13:02;;;;;;;24.70;22.88;;;24.20;99.90;;;;;;4959645;28;20050;-73
2023/08/14 09:15:40;;;;;;;24.13;22.25;;;24.20;99.90;;;;;;4971409;28;20489;-73
2023/08/14 09:18:08;;;;;;;24.10;21.98;;;24.10;99.90;;;;;;4970865;28;20133;-74
2023/08/14 09:20:35;;;;;;;24.08;22.20;;;24.10;99.90;;;;;;4967426;28;20762;-74
2023/08/14 09:23:03;;;;;;;24.05;22.00;;;24.20;99.90;;;;;;4967425;28;20046;-74
2023/08/14 09:25:30;;;;;;;23.90;21.80;;;24.40;99.90;;;;;;4968240;28;20566;-74
2023/08/14 09:27:57;;;;;;;23.98;22.02;;;24.30;99.90;;;;;;4962860;28;20053;-73
2023/08/14 09:30:26;;;;;;;23.00;21.33;;;24.30;99.90;;;;;;4963362;28;20050;-74
2023/08/14 09:32:54;;;;;;;23.83;21.95;;;24.00;99.90;;;;;;4966800;28;20104;-74
2023/08/14 09:35:21;;;;;;;24.38;22.60;;;24.00;99.90;;;;;;4969739;28;20054;-74
2023/08/14 09:37:48;;;;;;;24.70;23.02;;;24.10;99.90;;;;;;4964763;28;20413;-73
2023/08/14 09:40:17;;;;;;;25.23;23.58;;;23.90;99.90;;;;;;4966690;28;20046;-73
2023/08/14 09:42:49;;;;;;;24.55;22.80;;;24.10;99.90;;;;;;4955075;28;20084;-73
2023/08/14 09:45:17;;;;;;;25.20;23.52;;;24.20;99.90;;;;;;4966543;28;20077;-73
2023/08/14 09:47:45;;;;;;;24.63;22.60;;;24.50;99.90;;;;;;4948396;28;20461;-73
2023/08/14 09:50:19;;;;;;;24.02;22.15;;;24.90;99.90;;;;;;4979878;28;21052;-73
2023/08/14 09:52:46;;;;;;;23.77;22.10;;;25.00;99.90;;;;;;4963881;28;20042;-73
2023/08/14 09:55:14;;;;;;;24.10;22.38;;;25.10;99.90;;;;;;4968538;28;20825;-73
2023/08/14 09:57:41;;;;;;;24.63;22.83;;;25.10;99.90;;;;;;4966829;28;20038;-72
2023/08/14 10:00:12;;;;;;;24.27;22.30;;;25.00;99.90;;;;;;4965506;28;20046;-73
2023/08/14 10:02:40;;;;;;;24.67;22.98;;;25.10;99.90;;;;;;4971494;28;20034;-73
2023/08/14 10:05:09;;;;;;;26.75;25.05;;;25.20;99.90;;;;;;4965630;28;20145;-74
2023/08/14 10:07:38;;;;;;;26.15;24.35;;;25.20;99.90;;;;;;4978599;28;20156;-73
2023/08/14 10:10:08;;;;;;;26.15;24.17;;;24.90;99.90;;;;;;4965952;28;20066;-71
2023/08/14 10:13:05;;;;;;;25.02;23.33;;;24.80;99.90;;;;;;4962343;28;20057;-73
2023/08/14 10:15:37;;;;;;;25.60;23.70;;;25.40;99.90;;;;;;4983230;28;20050;-72
2023/08/14 10:18:12;;;;;;;24.23;22.73;;;25.50;99.90;;;;;;4981077;28;20124;-72
2023/08/14 10:20:42;;;;;;;23.92;22.60;;;25.80;99.90;;;;;;4966049;28;20053;-73
2023/08/14 10:23:13;;;;;;;29.10;26.65;;;26.20;99.90;;;;;;4970669;28;20113;-73
2023/08/14 10:25:42;;;;;;;26.02;24.27;;;26.30;99.90;;;;;;4968901;28;20409;-73
2023/08/14 10:28:09;;;;;;;26.88;25.17;;;26.40;99.90;;;;;;4983320;28;20101;-72
2023/08/14 10:30:38;;;;;;;27.80;26.10;;;26.50;99.90;;;;;;4966023;28;20474;-73
2023/08/14 10:33:06;;;;;;;25.48;23.77;;;26.50;99.90;;;;;;4966512;28;20080;-71
2023/08/14 10:35:55;;;;;;;25.27;23.55;;;26.70;99.90;;;;;;4971019;28;20050;-72
2023/08/14 10:38:38;;;;;;;25.55;23.58;;;26.70;99.90;;;;;;4965745;28;20520;-73
2023/08/14 10:41:07;;;;;;;26.00;24.20;;;26.70;99.90;;;;;;4946578;28;21139;-73
2023/08/14 10:43:33;;;;;;;25.33;23.65;;;26.80;99.90;;;;;;4970619;28;20229;-74
2023/08/14 10:46:13;;;;;;;26.80;24.67;;;26.70;99.90;;;;;;4967334;28;20089;-74
2023/08/14 10:48:42;;;;;;;26.05;24.05;;;26.50;99.90;;;;;;4965195;28;20053;-73
2023/08/14 10:51:10;;;;;;;26.05;24.05;;;26.40;99.90;;;;;;4961613;28;20050;-73
2023/08/14 10:53:39;;;;;;;25.27;23.50;;;26.40;99.90;;;;;;4985043;28;20077;-73
2023/08/14 10:56:06;;;;;;;27.88;26.08;;;26.20;99.90;;;;;;4965084;28;20417;-73
2023/08/14 10:58:35;;;;;;;26.15;24.30;;;26.00;99.90;;;;;;4967199;28;20057;-73
2023/08/14 11:01:04;;;;;;;26.20;24.17;;;26.10;99.90;;;;;;4950546;28;20039;-73
2023/08/14 11:03:58;;;;;;;26.90;24.77;;;26.00;99.90;;;;;;4970609;28;20042;-73
2023/08/14 11:06:27;;;;;;;28.17;26.05;;;26.00;99.90;;;;;;4963012;28;21775;-73
2023/08/14 11:08:59;;;;;;;29.15;27.05;;;26.30;99.90;;;;;;4949513;28;20046;-72
2023/08/14 11:11:26;;;;;;;29.65;27.65;;;26.40;99.90;;;;;;4964212;28;20050;-72
2023/08/14 11:13:53;;;;;;;27.95;26.23;;;26.60;99.90;;;;;;4961952;28;20054;-72
2023/08/14 11:16:21;;;;;;;28.45;26.65;;;27.00;99.90;;;;;;4967895;28;20618;-73
2023/08/14 11:18:48;;;;;;;27.45;25.60;;;27.10;99.90;;;;;;4969782;28;20463;-72
2023/08/14 11:21:15;;;;;;;27.92;26.13;;;27.30;99.90;;;;;;4967569;28;20057;-72
2023/08/14 11:23:57;;;;;;;29.75;27.48;;;27.60;99.90;;;;;;4952254;28;20496;-72
2023/08/14 11:26:29;;;;;;;27.30;24.98;;;27.70;99.90;;;;;;4970857;28;20034;-72
2023/08/14 11:28:55;;;;;;;28.63;26.73;;;28.00;99.90;;;;;;4983123;28;20054;-72
2023/08/14 11:31:22;;;;;;;27.00;25.13;;;27.60;99.90;;;;;;4970549;28;20493;-72
2023/08/14 11:34:00;;;;;;;30.00;27.92;;;27.50;99.90;;;;;;4985163;28;20134;-73
2023/08/14 11:36:28;;;;;;;27.20;25.17;;;27.70;99.90;;;;;;4969227;28;20055;-73
2023/08/14 11:39:01;;;;;;;27.52;25.17;;;27.80;99.90;;;;;;4984875;28;20229;-73
2023/08/14 11:41:28;;;;;;;27.83;25.92;;;27.70;99.90;;;;;;4982190;28;20038;-73
2023/08/14 11:43:58;;;;;;;28.60;26.58;;;27.10;99.90;;;;;;4970744;28;20043;-72
2023/08/14 11:46:24;;;;;;;26.98;25.02;;;26.80;99.90;;;;;;4952227;28;20097;-72
2023/08/14 11:48:52;;;;;;;26.55;24.60;;;27.00;99.90;;;;;;4963569;28;20522;-73
2023/08/14 11:51:20;;;;;;;28.20;26.13;;;26.80;99.90;;;;;;4970607;28;20758;-72
2023/08/14 11:53:47;;;;;;;29.25;27.23;;;26.80;99.90;;;;;;4973324;28;20133;-72
2023/08/14 11:56:14;;;;;;;27.48;25.58;;;26.90;99.90;;;;;;4949138;28;20057;-74
2023/08/14 11:58:41;;;;;;;27.58;25.52;;;27.10;99.90;;;;;;4971489;28;20513;-73
2023/08/14 12:01:15;;;;;;;26.52;24.73;;;27.30;99.90;;;;;;4968540;28;20066;-73
2023/08/14 12:03:42;;;;;;;26.45;24.35;;;27.00;99.90;;;;;;4966575;28;20093;-74
2023/08/14 12:06:08;;;;;;;26.88;24.92;;;26.90;99.90;;;;;;4969395;28;20081;-73
2023/08/14 12:08:37;;;;;;;27.75;25.73;;;26.60;99.90;;;;;;4954810;28;20065;-73
2023/08/14 12:11:07;;;;;;;26.15;24.23;;;26.70;99.90;;;;;;4966690;28;20206;-73
2023/08/14 12:13:34;;;;;;;26.45;24.45;;;26.80;99.90;;;;;;4971815;28;20042;-73
2023/08/14 12:16:08;;;;;;;27.50;25.52;;;26.90;99.90;;;;;;4968716;28;20043;-73
2023/08/14 12:18:47;;;;;;;26.83;24.83;;;26.90;99.90;;;;;;4969421;28;20046;-74
2023/08/14 12:21:14;;;;;;;27.00;24.73;;;27.00;99.90;;;;;;4965326;28;20046;-73
2023/08/14 12:23:48;;;;;;;27.50;25.50;;;27.10;99.90;;;;;;4967807;28;20050;-72
2023/08/14 12:26:15;;;;;;;;;;;27.20;99.90;;;;;;4970654;28;20068;-74
2023/08/14 12:28:43;;;;;;;28.58;26.42;;;27.20;99.90;;;;;;4968286;28;19949;-74
2023/08/14 12:31:10;;;;;;;29.52;27.77;;;27.50;99.90;;;;;;4948862;28;20057;-73
2023/08/14 12:33:40;;;;;;;30.08;28.23;;;27.90;99.90;;;;;;4970710;28;20046;-74